Toca, Louisiana
Current Conditions -  °F | °C
As of 1:21 AM on Saturday 29 Nov 2014 (Local Time) from KNBG Reporting Station
Broken Clouds Broken Clouds  
Wind Chill: 43°   Ceiling: 2700
Heat Index: 43°   Visibility: NA
Dew Point: 39°   Wind: 0mph
Humidity: 86%   Direction: NA
Pressure: 30.24"   Gusts: NA
Location:  29.8369°N, 89.7702°W
Report Text: KNBG 290721Z AUTO 00000KT FEW005 BKN027 06/04 A3024 RMK AO2 T00610039 TSNO $
Loading
Personal Weather Stations






























Interactive Weather Map New forecast layout! Learn more

10-Day Weather Forecast

Advertisements
Track Severe Weather on mobile